createdAt,value
2024-05-09T00:00:56.140Z,12.13
2024-05-09T00:01:56.159Z,12.13
2024-05-09T00:02:56.121Z,12.13
2024-05-09T00:03:56.120Z,12.15
2024-05-09T00:04:56.181Z,12.15
2024-05-09T00:05:56.157Z,12.17
2024-05-09T00:06:56.044Z,12.15
2024-05-09T00:07:56.065Z,12.17
2024-05-09T00:08:56.051Z,12.13
2024-05-09T00:09:56.033Z,12.13
2024-05-09T00:10:56.084Z,12.10
2024-05-09T00:11:56.055Z,12.10
2024-05-09T00:12:55.978Z,12.09
2024-05-09T00:13:56.021Z,12.09
2024-05-09T00:14:55.968Z,12.10
2024-05-09T00:15:55.978Z,12.09
2024-05-09T00:16:55.975Z,12.09
2024-05-09T00:17:56.387Z,12.10
2024-05-09T00:18:56.058Z,12.09
2024-05-09T00:19:55.931Z,12.09
2024-05-09T00:20:56.018Z,12.07
2024-05-09T00:21:55.876Z,12.04
2024-05-09T00:22:55.947Z,12.02
2024-05-09T00:23:55.858Z,12.02
2024-05-09T00:24:55.864Z,12.00
2024-05-09T00:25:55.876Z,12.03
2024-05-09T00:26:55.851Z,12.02
2024-05-09T00:27:55.834Z,12.03
2024-05-09T00:28:55.849Z,12.04
2024-05-09T00:29:55.790Z,12.04
2024-05-09T00:30:55.793Z,12.04
2024-05-09T00:31:55.878Z,12.04
2024-05-09T00:32:55.860Z,12.04
2024-05-09T00:33:55.995Z,12.03
2024-05-09T00:34:55.795Z,12.04
2024-05-09T00:35:55.789Z,12.02
2024-05-09T00:36:55.779Z,12.02
2024-05-09T00:37:55.793Z,12.04
2024-05-09T00:38:55.692Z,12.03
2024-05-09T00:39:55.693Z,12.03
2024-05-09T00:40:55.686Z,12.03
2024-05-09T00:41:55.668Z,12.03
2024-05-09T00:42:55.679Z,12.00
2024-05-09T00:43:55.712Z,11.97
2024-05-09T00:44:55.637Z,11.94
2024-05-09T00:45:55.622Z,11.91
2024-05-09T00:46:55.666Z,11.90
2024-05-09T00:47:55.792Z,11.90
2024-05-09T00:49:01.794Z,11.88
2024-05-09T00:49:55.580Z,11.88
2024-05-09T00:50:55.629Z,11.88
2024-05-09T00:51:55.571Z,11.87
2024-05-09T00:52:55.653Z,11.87
2024-05-09T00:53:55.554Z,11.88
2024-05-09T00:54:55.540Z,11.88
2024-05-09T00:55:55.569Z,11.86
2024-05-09T00:56:55.509Z,11.84
2024-05-09T00:57:55.509Z,11.83
2024-05-09T00:58:55.570Z,11.81
2024-05-09T00:59:55.471Z,11.81
2024-05-09T01:00:55.520Z,11.80
2024-05-09T01:01:55.560Z,11.81
2024-05-09T01:02:55.608Z,11.78
2024-05-09T01:03:55.640Z,11.78
2024-05-09T01:04:55.696Z,11.77
2024-05-09T01:05:55.560Z,11.77
2024-05-09T01:06:55.405Z,11.75
2024-05-09T01:07:55.424Z,11.73
2024-05-09T01:08:55.370Z,11.75
2024-05-09T01:09:55.350Z,11.75
2024-05-09T01:10:55.488Z,11.75
2024-05-09T01:11:55.485Z,11.73
2024-05-09T01:12:55.328Z,11.75
2024-05-09T01:13:55.355Z,11.78
2024-05-09T01:14:55.351Z,11.75
2024-05-09T01:15:55.303Z,11.77
2024-05-09T01:16:55.381Z,11.75
2024-05-09T01:17:55.745Z,11.75
2024-05-09T01:18:55.543Z,11.73
2024-05-09T01:19:55.255Z,11.75
2024-05-09T01:20:55.287Z,11.73
2024-05-09T01:21:55.252Z,11.70
2024-05-09T01:22:55.270Z,11.70
2024-05-09T01:23:55.228Z,11.69
2024-05-09T01:24:55.205Z,11.68
2024-05-09T01:25:55.250Z,11.68
2024-05-09T01:26:55.196Z,11.66
2024-05-09T01:27:55.166Z,11.68
2024-05-09T01:28:55.255Z,11.66
2024-05-09T01:29:55.170Z,11.68
2024-05-09T06:00:54.244Z,11.88
2024-05-09T06:01:54.733Z,11.88
2024-05-09T06:02:54.717Z,11.94
2024-05-09T06:03:54.666Z,11.99
2024-05-09T06:04:54.708Z,11.97
2024-05-09T06:05:54.693Z,11.99
2024-05-09T06:06:54.621Z,12.04
2024-05-09T06:07:54.603Z,12.07
2024-05-09T06:08:54.580Z,12.09
2024-05-09T06:09:54.545Z,12.10
2024-05-09T06:10:54.633Z,12.17
2024-05-09T06:11:54.717Z,12.15
2024-05-09T06:12:54.509Z,12.17
2024-05-09T06:13:54.548Z,12.17
2024-05-09T06:14:54.491Z,12.20
2024-05-09T06:15:54.498Z,12.22
2024-05-09T06:16:57.697Z,12.24
2024-05-09T06:17:54.735Z,12.28
2024-05-09T06:18:54.925Z,12.28
2024-05-09T06:19:54.555Z,12.32
2024-05-09T06:20:54.484Z,12.32
2024-05-09T06:21:54.431Z,12.36
2024-05-09T06:22:54.446Z,12.39
2024-05-09T06:23:54.412Z,12.40
2024-05-09T06:24:54.410Z,12.40
2024-05-09T06:25:54.438Z,12.40
2024-05-09T06:26:54.360Z,12.46
2024-05-09T06:27:54.357Z,12.45
2024-05-09T06:28:54.394Z,12.47
2024-05-09T06:29:54.329Z,12.50
2024-05-09T06:30:54.312Z,12.53
2024-05-09T06:31:55.899Z,12.54
2024-05-09T06:32:54.380Z,12.57
2024-05-09T06:33:54.425Z,12.60
2024-05-09T06:34:54.351Z,12.60
2024-05-09T06:35:54.261Z,12.60
2024-05-09T06:36:54.256Z,12.60
2024-05-09T06:37:54.305Z,12.60
2024-05-09T06:38:54.271Z,12.62
2024-05-09T06:39:54.246Z,12.61
2024-05-09T06:40:54.278Z,12.65
2024-05-09T06:41:54.226Z,12.68
2024-05-09T06:42:54.187Z,12.67
2024-05-09T06:43:54.231Z,12.68
2024-05-09T06:44:54.175Z,12.70
2024-05-09T06:45:54.183Z,12.73
2024-05-09T06:46:57.069Z,12.78
2024-05-09T06:47:54.357Z,12.79
2024-05-09T06:48:54.449Z,12.80
2024-05-09T06:49:54.127Z,12.82
2024-05-09T06:50:54.177Z,12.85
2024-05-09T06:51:54.128Z,12.90
2024-05-09T06:52:54.109Z,12.91
2024-05-09T06:53:54.089Z,12.94
2024-05-09T06:54:54.058Z,12.97
2024-05-09T06:55:54.117Z,13.00
2024-05-09T06:56:54.061Z,13.01
2024-05-09T06:57:54.083Z,13.05
2024-05-09T06:58:54.052Z,13.08
2024-05-09T06:59:54.007Z,13.12
2024-05-09T07:00:54.068Z,13.12
2024-05-09T07:01:54.012Z,13.12
2024-05-09T07:02:54.022Z,13.15
2024-05-09T07:03:54.182Z,13.12
2024-05-09T07:05:00.047Z,13.13
2024-05-09T07:08:20.574Z,13.15
2024-05-09T07:09:22.312Z,13.15
2024-05-09T07:10:28.883Z,13.15
2024-05-09T07:11:21.562Z,13.16
2024-05-09T07:12:21.525Z,13.18
2024-05-09T07:13:21.460Z,13.22
2024-05-09T07:14:21.508Z,13.22
2024-05-09T07:15:21.433Z,13.25
2024-05-09T07:16:21.428Z,13.23
2024-05-09T07:17:21.944Z,13.25
2024-05-09T07:18:21.630Z,13.28
2024-05-09T07:19:21.456Z,13.31
2024-05-09T07:20:31.640Z,13.33
2024-05-09T07:21:21.372Z,13.37
2024-05-09T07:22:21.373Z,13.37
2024-05-09T07:23:21.416Z,13.41
2024-05-09T07:24:21.324Z,13.41
2024-05-09T07:25:21.334Z,13.44
2024-05-09T07:26:21.371Z,13.44
2024-05-09T07:27:21.304Z,13.49
2024-05-09T07:28:21.388Z,13.50
2024-05-09T07:29:21.330Z,13.53
2024-05-09T07:30:27.559Z,13.57
2024-05-09T07:31:21.265Z,13.60
2024-05-09T07:32:21.370Z,13.63
2024-05-09T07:33:23.020Z,13.67
2024-05-09T07:34:21.518Z,13.65
2024-05-09T07:35:21.235Z,13.67
2024-05-09T07:36:21.210Z,13.71
2024-05-09T07:37:21.184Z,13.75
2024-05-09T07:38:21.248Z,13.78
2024-05-09T07:39:21.162Z,13.81
2024-05-09T07:40:31.820Z,13.86
2024-05-09T07:41:21.219Z,13.87
2024-05-09T07:42:21.140Z,13.90
2024-05-09T07:43:21.117Z,13.93
2024-05-09T07:44:21.144Z,13.97
2024-05-09T07:45:40.117Z,14.00
2024-05-09T07:48:32.070Z,14.07
2024-05-09T07:52:22.626Z,14.11
2024-05-09T07:53:42.055Z,14.15
2024-05-09T07:53:53.378Z,14.17
2024-05-09T07:54:44.959Z,14.15
2024-05-09T07:55:44.830Z,14.17
2024-05-09T07:56:44.878Z,14.18
2024-05-09T07:57:44.779Z,14.17
2024-05-09T07:58:44.759Z,14.18
2024-05-09T07:59:44.751Z,14.20
2024-05-09T08:00:44.875Z,14.20
2024-05-09T08:01:44.777Z,14.22
2024-05-09T08:02:44.740Z,14.23
2024-05-09T08:03:44.949Z,14.28
2024-05-09T08:04:44.780Z,14.32
2024-05-09T08:05:44.731Z,14.33
2024-05-09T08:06:44.691Z,14.37
2024-05-09T08:07:44.635Z,14.43
2024-05-09T08:08:44.640Z,14.45
2024-05-09T08:09:44.658Z,14.45
2024-05-09T08:10:44.803Z,14.47
2024-05-09T08:11:44.633Z,14.47
2024-05-09T08:12:44.619Z,14.47
2024-05-09T08:13:44.586Z,14.48
2024-05-09T08:14:44.582Z,14.47
2024-05-09T08:15:44.740Z,14.50
2024-05-09T08:16:44.531Z,14.53
2024-05-09T08:17:44.626Z,14.54
2024-05-09T08:18:44.637Z,14.59
2024-05-09T08:19:44.594Z,14.59
2024-05-09T08:20:44.499Z,14.60
2024-05-09T08:21:44.541Z,14.65
2024-05-09T08:22:44.487Z,14.65
2024-05-09T08:23:44.448Z,14.69
2024-05-09T08:24:44.473Z,14.70
2024-05-09T08:25:44.519Z,14.73
2024-05-09T08:26:44.430Z,14.79
2024-05-09T08:27:44.480Z,14.82
2024-05-09T08:28:44.404Z,14.84
2024-05-09T08:29:44.486Z,14.92
2024-05-09T08:30:44.678Z,14.96
2024-05-09T08:31:44.592Z,14.97
2024-05-09T08:32:44.490Z,15.03
2024-05-09T08:33:44.687Z,15.03
2024-05-09T08:34:44.423Z,15.06
2024-05-09T08:35:44.360Z,15.07
2024-05-09T08:36:44.345Z,15.07
2024-05-09T08:37:44.377Z,15.09
2024-05-09T08:38:44.313Z,15.04
2024-05-09T08:39:44.347Z,15.06
2024-05-09T08:40:44.548Z,15.07
2024-05-09T08:41:44.285Z,15.09
2024-05-09T08:42:44.309Z,15.09
2024-05-09T08:43:44.315Z,15.09
2024-05-09T08:44:44.232Z,15.09
2024-05-09T08:45:45.366Z,15.11
2024-05-09T08:46:44.245Z,15.11
2024-05-09T08:47:44.322Z,15.17
2024-05-09T08:48:44.516Z,15.18
2024-05-09T08:49:44.215Z,15.19
2024-05-09T08:50:45.405Z,15.19
2024-05-09T08:51:44.237Z,15.24
2024-05-09T08:52:44.161Z,15.28
2024-05-09T08:53:44.149Z,15.27
2024-05-09T08:54:44.207Z,15.29
2024-05-09T08:55:44.623Z,15.33
2024-05-09T08:56:44.097Z,15.31
2024-05-09T08:57:44.163Z,15.31
2024-05-09T08:58:44.090Z,15.35
2024-05-09T08:59:44.084Z,15.37
2024-05-09T09:00:44.334Z,15.39
2024-05-09T09:01:44.221Z,15.40
2024-05-09T09:02:44.387Z,15.37
2024-05-09T09:03:44.257Z,15.44
2024-05-09T09:04:44.183Z,15.44
2024-05-09T09:05:44.110Z,15.51
2024-05-09T09:06:44.175Z,15.52
2024-05-09T09:07:43.993Z,15.59
2024-05-09T09:08:44.005Z,15.61
2024-05-09T09:09:44.075Z,15.65
2024-05-09T09:10:44.125Z,15.73
2024-05-09T09:11:43.990Z,15.77
2024-05-09T09:12:43.980Z,15.80
2024-05-09T09:13:43.930Z,15.80
2024-05-09T09:14:43.962Z,15.84
2024-05-09T09:15:43.955Z,15.83
2024-05-09T09:16:43.911Z,15.83
2024-05-09T09:17:44.022Z,15.84
2024-05-09T09:18:44.175Z,15.88
2024-05-09T09:19:43.954Z,15.90
2024-05-09T09:20:44.038Z,15.91
2024-05-09T09:21:43.932Z,15.92
2024-05-09T09:22:43.828Z,15.98
2024-05-09T09:23:43.832Z,16.01
2024-05-09T09:24:44.612Z,16.02
2024-05-09T09:25:43.847Z,16.08
2024-05-09T09:26:43.786Z,16.08
2024-05-09T09:27:43.788Z,16.12
2024-05-09T09:28:43.755Z,16.21
2024-05-09T09:29:43.756Z,16.26
2024-05-09T09:30:43.783Z,16.31
2024-05-09T09:31:43.743Z,16.33
2024-05-09T09:32:43.808Z,16.36
2024-05-09T09:33:43.939Z,16.38
2024-05-09T09:34:43.789Z,16.41
2024-05-09T09:35:43.703Z,16.43
2024-05-09T09:36:43.762Z,16.43
2024-05-09T09:37:43.669Z,16.42
2024-05-09T09:38:43.678Z,16.46
2024-05-09T09:39:43.704Z,16.43
2024-05-09T09:40:48.268Z,16.42
2024-05-09T09:41:43.635Z,16.43
2024-05-09T09:42:43.655Z,16.43
2024-05-09T09:43:43.608Z,16.46
2024-05-09T09:44:47.877Z,16.46
2024-05-09T09:45:43.850Z,16.46
2024-05-09T09:46:43.578Z,16.49
2024-05-09T09:47:43.792Z,16.53
2024-05-09T09:48:43.656Z,16.58
2024-05-09T09:49:43.644Z,16.60
2024-05-09T09:50:43.538Z,16.65
2024-05-09T09:51:43.651Z,16.68
2024-05-09T09:52:43.494Z,16.71
2024-05-09T09:53:43.534Z,16.69
2024-05-09T09:54:43.540Z,16.71
2024-05-09T09:55:43.479Z,16.72
2024-05-09T09:56:43.457Z,16.72
2024-05-09T09:57:43.521Z,16.74
2024-05-09T09:58:43.446Z,16.72
2024-05-09T09:59:43.437Z,16.75
2024-05-09T10:00:43.740Z,16.81
2024-05-09T10:01:43.502Z,16.87
2024-05-09T10:02:43.426Z,16.89
2024-05-09T10:03:44.420Z,16.94
2024-05-09T10:04:44.916Z,17.01
2024-05-09T10:05:46.295Z,17.05
2024-05-09T10:06:43.395Z,17.05
2024-05-09T10:07:43.435Z,17.09
2024-05-09T10:08:43.393Z,17.12
2024-05-09T10:09:43.359Z,17.14
2024-05-09T10:10:43.405Z,17.14
2024-05-09T10:11:49.095Z,17.15
2024-05-09T10:12:43.314Z,17.19
2024-05-09T10:13:43.300Z,17.22
2024-05-09T10:14:43.257Z,17.27
2024-05-09T10:15:43.344Z,17.30
2024-05-09T10:16:43.257Z,17.34
2024-05-09T10:17:43.461Z,17.31
2024-05-09T10:18:43.440Z,17.36
2024-05-09T10:19:43.342Z,17.44
2024-05-09T10:20:43.206Z,17.48
2024-05-09T10:21:43.221Z,17.49
2024-05-09T10:22:43.186Z,17.51
2024-05-09T10:23:43.209Z,17.56
2024-05-09T10:24:43.259Z,17.54
2024-05-09T10:25:43.153Z,17.54
2024-05-09T10:26:43.130Z,17.51
2024-05-09T10:27:43.148Z,17.54
2024-05-09T10:28:43.136Z,17.52
2024-05-09T10:29:43.122Z,17.56
2024-05-09T10:30:43.379Z,17.57
2024-05-09T10:31:43.128Z,17.60
2024-05-09T10:32:43.188Z,17.65
2024-05-09T10:33:58.040Z,17.65
2024-05-09T10:34:55.356Z,17.72
2024-05-09T10:35:43.039Z,17.71
2024-05-09T10:36:43.119Z,17.71
2024-05-09T10:37:43.094Z,17.71
2024-05-09T10:38:43.030Z,17.76
2024-05-09T10:39:43.074Z,17.80
2024-05-09T10:40:43.021Z,17.85
2024-05-09T10:41:42.988Z,17.89
2024-05-09T10:42:43.058Z,17.92
2024-05-09T10:43:42.964Z,17.94
2024-05-09T10:44:42.955Z,18.01
2024-05-09T10:45:42.950Z,18.00
2024-05-09T10:46:42.956Z,18.00
2024-05-09T10:47:43.134Z,18.04
2024-05-09T10:48:43.164Z,18.04
2024-05-09T10:49:42.906Z,18.05
2024-05-09T10:50:42.938Z,18.04
2024-05-09T10:51:42.918Z,17.98
2024-05-09T10:52:42.874Z,17.97
2024-05-09T10:53:42.897Z,17.95
2024-05-09T10:54:42.887Z,18.00
2024-05-09T10:55:42.837Z,18.00
2024-05-09T10:56:42.806Z,18.03
2024-05-09T10:57:42.849Z,18.05
2024-05-09T10:58:42.871Z,18.11
2024-05-09T10:59:42.816Z,18.15
2024-05-09T11:00:42.954Z,18.20
2024-05-09T11:01:42.970Z,18.22
2024-05-09T11:02:43.129Z,18.28
2024-05-09T11:03:43.246Z,18.35
2024-05-09T11:04:42.909Z,18.44
2024-05-09T11:05:43.694Z,18.49
2024-05-09T11:06:42.750Z,18.50
2024-05-09T11:07:42.779Z,18.56
2024-05-09T11:08:42.825Z,18.58
2024-05-09T11:09:42.814Z,18.59
2024-05-09T11:10:42.790Z,18.68
2024-05-09T11:11:42.743Z,18.73
2024-05-09T11:12:42.733Z,18.77
2024-05-09T11:13:42.630Z,18.80
2024-05-09T11:14:42.701Z,18.83
2024-05-09T11:15:42.727Z,18.83
2024-05-09T11:16:42.625Z,18.84
2024-05-09T11:17:42.671Z,18.90
2024-05-09T11:18:42.775Z,18.96
2024-05-09T11:19:42.752Z,19.00
2024-05-09T11:20:42.722Z,19.04
2024-05-09T11:21:42.734Z,19.07
2024-05-09T11:22:42.584Z,19.11
2024-05-09T11:23:42.544Z,19.16
2024-05-09T11:24:42.594Z,19.26
2024-05-09T11:25:42.549Z,19.36
2024-05-09T11:26:42.532Z,19.44
2024-05-09T11:27:42.534Z,19.49
2024-05-09T11:28:42.534Z,19.56
2024-05-09T11:29:42.454Z,19.58
2024-05-09T11:30:42.510Z,19.64
2024-05-09T11:31:42.506Z,19.70
2024-05-09T11:32:42.554Z,19.71
2024-05-09T11:33:42.574Z,19.74
2024-05-09T11:34:42.526Z,19.86
2024-05-09T11:35:42.403Z,19.96
2024-05-09T11:36:42.466Z,20.07
2024-05-09T11:37:42.366Z,20.14
2024-05-09T11:38:42.370Z,20.25
2024-05-09T11:39:42.392Z,20.28
2024-05-09T11:40:42.508Z,20.37
2024-05-09T11:41:42.338Z,20.40
2024-05-09T11:42:42.346Z,20.41
2024-05-09T11:43:42.317Z,20.39
2024-05-09T11:44:42.310Z,20.36
2024-05-09T11:45:42.330Z,20.39
2024-05-09T11:46:42.329Z,20.40
2024-05-09T11:47:42.456Z,20.40
2024-05-09T11:48:42.526Z,20.44
2024-05-09T11:49:42.417Z,20.47
2024-05-09T11:50:42.318Z,20.55
2024-05-09T11:51:42.258Z,20.60
2024-05-09T11:52:42.355Z,20.63
2024-05-09T11:53:42.200Z,20.69
2024-05-09T11:54:42.260Z,20.72
2024-05-09T11:55:42.177Z,20.80
2024-05-09T11:56:42.229Z,20.85
2024-05-09T11:57:42.314Z,20.88
2024-05-09T11:58:42.197Z,20.93
2024-05-09T11:59:42.171Z,20.95
2024-05-09T12:00:42.313Z,20.96
2024-05-09T12:01:42.228Z,20.96
2024-05-09T12:02:42.374Z,20.96
2024-05-09T12:03:42.335Z,20.96
2024-05-09T12:04:43.027Z,20.95
2024-05-09T12:05:42.278Z,20.93
2024-05-09T12:06:42.189Z,20.93
2024-05-09T12:07:42.112Z,20.96
2024-05-09T12:08:42.078Z,20.97
2024-05-09T12:09:42.096Z,20.97
2024-05-09T12:10:42.408Z,20.99
2024-05-09T12:11:42.072Z,21.00
2024-05-09T12:12:42.021Z,21.06
2024-05-09T12:13:41.991Z,21.11
2024-05-09T12:14:41.993Z,21.09
2024-05-09T12:15:42.014Z,21.05
2024-05-09T12:16:42.076Z,21.09
2024-05-09T12:17:42.021Z,21.14
2024-05-09T12:18:42.053Z,21.18
2024-05-09T12:19:41.962Z,21.18
2024-05-09T12:20:41.928Z,21.25
2024-05-09T12:21:41.915Z,21.35
2024-05-09T12:22:41.914Z,21.35
2024-05-09T12:23:41.878Z,21.42
2024-05-09T12:24:41.944Z,21.45
2024-05-09T12:25:41.877Z,21.54
2024-05-09T12:26:41.856Z,21.62
2024-05-09T12:27:41.911Z,21.69
2024-05-09T12:28:41.844Z,21.75
2024-05-09T12:29:41.850Z,21.83
2024-05-09T12:30:42.152Z,21.88
2024-05-09T12:31:41.815Z,21.83
2024-05-09T12:32:41.878Z,21.85
2024-05-09T12:33:41.842Z,21.83
2024-05-09T12:34:41.877Z,21.83
2024-05-09T12:35:44.359Z,21.82
2024-05-09T12:36:41.837Z,21.79
2024-05-09T12:37:41.728Z,21.75
2024-05-09T12:38:41.742Z,21.70
2024-05-09T12:39:41.769Z,21.67
2024-05-09T12:40:41.916Z,21.62
2024-05-09T12:41:41.750Z,21.61
2024-05-09T12:42:41.866Z,21.61
2024-05-09T12:43:41.753Z,21.60
2024-05-09T12:44:41.786Z,21.60
2024-05-09T12:45:41.728Z,21.60
2024-05-09T12:46:41.717Z,21.62
2024-05-09T12:47:41.719Z,21.69
2024-05-09T12:48:41.809Z,21.76
2024-05-09T12:49:41.678Z,21.80
2024-05-09T12:50:42.078Z,21.85
2024-05-09T12:51:41.621Z,21.93
2024-05-09T12:52:41.612Z,22.02
2024-05-09T12:53:41.592Z,22.07
2024-05-09T12:54:41.599Z,22.15
2024-05-09T12:55:48.653Z,22.20
2024-05-09T12:56:41.535Z,22.32
2024-05-09T12:57:41.563Z,22.36
2024-05-09T12:58:42.452Z,22.45
2024-05-09T12:59:41.523Z,22.50
2024-05-09T13:00:41.644Z,22.59
2024-05-09T13:01:41.560Z,22.65
2024-05-09T13:02:41.674Z,22.68
2024-05-09T13:03:41.624Z,22.75
2024-05-09T13:04:41.538Z,22.84
2024-05-09T13:05:41.953Z,22.93
2024-05-09T13:06:41.484Z,23.03
2024-05-09T13:07:41.426Z,23.13
2024-05-09T13:08:41.408Z,23.24
2024-05-09T13:09:41.417Z,23.39
2024-05-09T13:10:41.605Z,23.44
2024-05-09T13:11:41.422Z,23.54
2024-05-09T13:12:41.460Z,23.63
2024-05-09T13:13:41.355Z,23.65
2024-05-09T13:14:41.344Z,23.59
2024-05-09T13:15:41.414Z,23.59
2024-05-09T13:16:41.428Z,23.56
2024-05-09T13:17:41.395Z,23.55
2024-05-09T13:18:41.460Z,23.56
2024-05-09T13:19:41.290Z,23.54
2024-05-09T13:20:41.291Z,23.51
2024-05-09T13:21:41.286Z,23.46
2024-05-09T13:22:41.259Z,23.36
2024-05-09T13:23:41.274Z,23.28
2024-05-09T13:24:41.285Z,23.23
2024-05-09T13:25:41.259Z,23.20
2024-05-09T13:26:41.255Z,23.10
2024-05-09T13:27:41.318Z,23.06
2024-05-09T13:28:41.196Z,23.02
2024-05-09T13:29:44.219Z,22.99
2024-05-09T13:30:42.292Z,22.99
2024-05-09T13:31:41.167Z,23.00
2024-05-09T13:32:41.194Z,23.02
2024-05-09T13:33:41.369Z,23.08
2024-05-09T13:34:41.309Z,23.06
2024-05-09T13:35:45.017Z,23.10
2024-05-09T13:36:41.163Z,23.12
2024-05-09T13:37:41.101Z,23.20
2024-05-09T13:38:41.113Z,23.25
2024-05-09T13:39:41.115Z,23.31
2024-05-09T13:40:41.294Z,23.39
2024-05-09T13:41:41.077Z,23.43
2024-05-09T13:42:41.091Z,23.47
2024-05-09T13:43:41.075Z,23.51
2024-05-09T13:44:41.027Z,23.61
2024-05-09T13:45:41.090Z,23.69
2024-05-09T13:46:41.061Z,23.80
2024-05-09T13:47:41.125Z,23.83
2024-05-09T13:48:41.080Z,23.87
2024-05-09T13:49:41.162Z,23.92
2024-05-09T13:50:40.988Z,23.98
2024-05-09T13:51:40.984Z,24.03
2024-05-09T13:52:40.952Z,24.14
2024-05-09T13:53:40.944Z,24.17
2024-05-09T13:54:40.973Z,24.23
2024-05-09T13:55:41.027Z,24.32
2024-05-09T13:56:40.915Z,24.39
2024-05-09T13:57:40.972Z,24.47
2024-05-09T13:58:40.889Z,24.54
2024-05-09T13:59:40.895Z,24.63
2024-05-09T14:00:46.569Z,24.69
2024-05-09T14:01:41.055Z,24.74
2024-05-09T14:02:41.127Z,24.85
2024-05-09T14:03:41.081Z,24.95
2024-05-09T14:04:40.989Z,24.99
2024-05-09T14:05:40.980Z,25.03
2024-05-09T14:06:40.851Z,25.04
2024-05-09T14:07:40.785Z,25.04
2024-05-09T14:08:40.823Z,25.06
2024-05-09T14:09:40.827Z,25.06
2024-05-09T14:10:40.796Z,24.98
2024-05-09T14:11:40.790Z,24.89
2024-05-09T14:12:40.808Z,24.80
2024-05-09T14:13:40.724Z,24.74
2024-05-09T14:14:40.714Z,24.63
2024-05-09T14:15:40.826Z,24.54
2024-05-09T14:16:40.910Z,24.45
2024-05-09T14:17:40.753Z,24.39
2024-05-09T14:18:40.711Z,24.45
2024-05-09T14:19:40.686Z,24.55
2024-05-09T14:20:40.733Z,24.61
2024-05-09T14:21:40.685Z,24.60
2024-05-09T14:22:40.674Z,24.66
2024-05-09T14:23:40.634Z,24.73
2024-05-09T14:24:40.687Z,24.63
2024-05-09T14:25:42.785Z,24.57
2024-05-09T14:26:40.617Z,24.54
2024-05-09T14:27:40.624Z,24.47
2024-05-09T14:28:40.620Z,24.39
2024-05-09T14:29:40.554Z,24.48
2024-05-09T14:30:40.613Z,24.55
2024-05-09T14:31:40.711Z,24.66
2024-05-09T14:32:40.594Z,24.69
2024-05-09T14:33:40.626Z,24.74
2024-05-09T14:34:40.649Z,24.86
2024-05-09T14:35:40.486Z,24.93
2024-05-09T14:36:40.518Z,25.01
2024-05-09T14:37:40.463Z,25.13
2024-05-09T14:38:40.476Z,25.32
2024-05-09T14:39:40.578Z,25.51
2024-05-09T14:40:43.617Z,25.68
2024-05-09T14:41:40.456Z,25.87
2024-05-09T14:42:40.491Z,26.05
2024-05-09T14:43:40.459Z,26.22
2024-05-09T14:44:40.401Z,26.38
2024-05-09T14:45:40.477Z,26.56
2024-05-09T14:46:40.398Z,26.74
2024-05-09T14:47:40.671Z,26.84
2024-05-09T14:48:40.450Z,26.97
2024-05-09T14:49:40.400Z,27.14
2024-05-09T14:50:41.015Z,27.33
2024-05-09T14:51:40.359Z,27.44
2024-05-09T14:52:40.316Z,27.52
2024-05-09T14:53:40.318Z,27.70
2024-05-09T14:54:40.360Z,27.86
2024-05-09T14:55:41.476Z,28.04
2024-05-09T14:56:40.276Z,28.19
2024-05-09T14:57:40.297Z,28.37
2024-05-09T14:58:40.246Z,28.37
2024-05-09T14:59:40.252Z,28.51
2024-05-09T15:00:43.244Z,28.66
2024-05-09T15:01:40.322Z,28.85
2024-05-09T15:02:40.254Z,29.07
2024-05-09T15:03:40.283Z,28.74
2024-05-09T15:04:40.309Z,28.42
2024-05-09T15:05:40.263Z,28.49
2024-05-09T15:06:40.235Z,28.23
2024-05-09T15:07:40.186Z,28.52
2024-05-09T15:08:40.176Z,28.51
2024-05-09T15:09:40.193Z,28.49
2024-05-09T15:10:40.344Z,28.81
2024-05-09T15:11:40.274Z,28.85
2024-05-09T15:12:40.148Z,29.20
2024-05-09T15:13:40.148Z,29.49
2024-05-09T15:14:40.140Z,29.73
2024-05-09T15:15:40.122Z,29.84
2024-05-09T15:16:40.063Z,29.90
2024-05-09T15:17:40.153Z,30.19
2024-05-09T15:18:43.130Z,30.39
2024-05-09T15:19:40.234Z,30.62
2024-05-09T15:20:40.185Z,30.73
2024-05-09T15:21:40.048Z,30.78
2024-05-09T15:22:39.999Z,30.66
2024-05-09T15:23:40.002Z,30.51
2024-05-09T15:24:42.018Z,30.50
2024-05-09T15:25:40.003Z,30.51
2024-05-09T15:26:39.960Z,30.48
2024-05-09T15:27:39.991Z,30.40
2024-05-09T15:28:39.947Z,30.32
2024-05-09T15:29:39.926Z,30.16
2024-05-09T15:30:42.047Z,30.03
2024-05-09T15:31:39.963Z,29.90
2024-05-09T15:32:39.990Z,29.69
2024-05-09T15:33:40.062Z,29.50
2024-05-09T15:34:39.936Z,29.22
2024-05-09T15:35:40.082Z,28.94
2024-05-09T15:36:41.788Z,28.66
2024-05-09T15:37:39.883Z,28.35
2024-05-09T15:38:39.864Z,28.07
2024-05-09T15:39:39.965Z,27.75
2024-05-09T15:40:40.975Z,27.52
2024-05-09T15:41:39.844Z,27.35
2024-05-09T15:42:41.785Z,27.18
2024-05-09T15:43:39.860Z,26.99
2024-05-09T15:44:39.775Z,26.83
2024-05-09T15:45:40.847Z,26.70
2024-05-09T15:46:39.856Z,26.53
2024-05-09T15:47:39.836Z,26.34
2024-05-09T15:48:42.719Z,26.18
2024-05-09T15:49:39.959Z,25.99
2024-05-09T15:50:41.927Z,25.81
2024-05-09T15:51:39.777Z,25.66
2024-05-09T15:52:39.688Z,25.41
2024-05-09T15:53:39.722Z,25.21
2024-05-09T15:54:39.714Z,25.14
2024-05-09T15:55:39.681Z,25.04
2024-05-09T15:56:39.693Z,24.93
2024-05-09T15:57:39.658Z,24.86
2024-05-09T15:58:39.631Z,24.76
2024-05-09T15:59:39.630Z,24.70
2024-05-09T16:00:42.476Z,24.61
2024-05-09T16:01:39.744Z,24.53
2024-05-09T16:02:39.795Z,24.50
2024-05-09T16:03:39.720Z,24.45
2024-05-09T16:04:39.651Z,24.40
2024-05-09T16:05:40.451Z,24.38
2024-05-09T16:06:39.580Z,24.30
2024-05-09T16:07:39.573Z,24.23
2024-05-09T16:08:39.556Z,24.18
2024-05-09T16:09:39.637Z,24.14
2024-05-09T16:10:41.365Z,24.08
2024-05-09T16:11:39.696Z,24.05
2024-05-09T16:12:39.595Z,23.96
2024-05-09T16:13:39.524Z,23.88
2024-05-09T16:14:39.486Z,23.81
2024-05-09T16:15:39.547Z,23.76
2024-05-09T16:16:39.671Z,23.73
2024-05-09T16:17:39.496Z,23.69
2024-05-09T16:18:39.912Z,23.65
2024-05-09T16:19:39.419Z,23.63
2024-05-09T16:20:41.747Z,23.56
2024-05-09T16:21:39.432Z,23.56
2024-05-09T16:22:39.373Z,23.56
2024-05-09T16:23:39.395Z,23.54
2024-05-09T16:24:39.454Z,23.51
2024-05-09T16:25:39.356Z,23.50
2024-05-09T16:26:39.368Z,23.46
2024-05-09T16:27:39.467Z,23.39
2024-05-09T16:28:39.422Z,23.34
2024-05-09T16:29:39.300Z,23.27
2024-05-09T16:30:39.911Z,23.28
2024-05-09T16:31:39.297Z,23.28
2024-05-09T16:32:39.315Z,23.25
2024-05-09T16:33:39.393Z,23.23
2024-05-09T16:34:39.279Z,23.18
2024-05-09T16:35:39.374Z,23.10
2024-05-09T16:36:39.307Z,23.02
2024-05-09T16:37:39.222Z,22.99
2024-05-09T16:38:39.227Z,22.91
2024-05-09T16:39:39.228Z,22.88
2024-05-09T16:40:41.130Z,22.85
2024-05-09T16:41:39.175Z,22.84
2024-05-09T16:42:39.255Z,22.80
2024-05-09T16:43:39.163Z,22.76
2024-05-09T16:44:39.185Z,22.76
2024-05-09T16:45:39.181Z,22.70
2024-05-09T16:46:39.134Z,22.72
2024-05-09T16:47:39.311Z,22.75
2024-05-09T16:48:39.203Z,22.73
2024-05-09T16:49:39.132Z,22.70
2024-05-09T16:50:39.258Z,22.69
2024-05-09T16:51:39.097Z,22.65
2024-05-09T16:52:39.089Z,22.62
2024-05-09T16:53:39.073Z,22.54
2024-05-09T16:54:39.066Z,22.53
2024-05-09T16:55:39.140Z,22.51
2024-05-09T16:56:39.040Z,22.51
2024-05-09T16:57:39.036Z,22.53
2024-05-09T16:58:39.050Z,22.53
2024-05-09T16:59:39.018Z,22.53
2024-05-09T17:00:42.575Z,22.51
2024-05-09T17:01:39.094Z,22.53
2024-05-09T17:02:39.191Z,22.57
2024-05-09T17:03:39.093Z,22.53
2024-05-09T17:04:39.174Z,22.54
2024-05-09T17:05:39.343Z,22.50
2024-05-09T17:06:38.987Z,22.47
2024-05-09T17:07:38.917Z,22.45
2024-05-09T17:08:38.907Z,22.44
2024-05-09T17:09:38.984Z,22.41
2024-05-09T17:10:39.043Z,22.44
2024-05-09T17:11:38.913Z,22.44
2024-05-09T17:12:38.874Z,22.39
2024-05-09T17:13:38.835Z,22.39
2024-05-09T17:14:38.843Z,22.39
2024-05-09T17:15:38.914Z,22.33
2024-05-09T17:16:38.924Z,22.30
2024-05-09T17:17:38.963Z,22.29
2024-05-09T17:18:38.863Z,22.28
2024-05-09T17:19:38.792Z,22.25
2024-05-09T17:20:38.816Z,22.22
2024-05-09T17:21:38.824Z,22.23
2024-05-09T17:22:38.736Z,22.23
2024-05-09T17:23:38.758Z,22.26
2024-05-09T17:24:38.754Z,22.26
2024-05-09T17:25:38.714Z,22.23
2024-05-09T17:26:38.750Z,22.20
2024-05-09T17:27:38.736Z,22.22
2024-05-09T17:28:38.688Z,22.23
2024-05-09T17:29:38.801Z,22.18